sensor_id;sensor_type;location;lat;lon;timestamp;P1;durP1;ratioP1;P2;durP2;ratioP2
19946;SDS011;10135;50.702;7.276;2022-12-29T06:00:47;0.90;;;0.80;;
19946;SDS011;10135;50.702;7.276;2022-12-29T06:02:48;0.90;;;0.90;;
19946;SDS011;10135;50.702;7.276;2022-12-29T06:04:49;0.70;;;0.70;;
19946;SDS011;10135;50.702;7.276;2022-12-29T06:06:50;0.80;;;0.80;;
19946;SDS011;10135;50.702;7.276;2022-12-29T06:08:51;1.10;;;1.10;;
19946;SDS011;10135;50.702;7.276;2022-12-29T06:10:51;1.50;;;0.80;;
19946;SDS011;10135;50.702;7.276;2022-12-29T06:12:52;0.80;;;0.80;;
19946;SDS011;10135;50.702;7.276;2022-12-29T06:14:53;0.70;;;0.70;;
19946;SDS011;10135;50.702;7.276;2022-12-29T06:16:53;0.80;;;0.80;;
19946;SDS011;10135;50.702;7.276;2022-12-29T06:18:54;0.83;;;0.83;;
19946;SDS011;10135;50.702;7.276;2022-12-29T06:20:59;0.80;;;0.80;;
19946;SDS011;10135;50.702;7.276;2022-12-29T06:23:04;1.23;;;0.70;;
19946;SDS011;10135;50.702;7.276;2022-12-29T06:25:05;0.70;;;0.70;;
19946;SDS011;10135;50.702;7.276;2022-12-29T06:27:07;0.80;;;0.80;;
19946;SDS011;10135;50.702;7.276;2022-12-29T06:29:08;0.93;;;0.90;;
19946;SDS011;10135;50.702;7.276;2022-12-29T06:31:09;0.70;;;0.70;;
19946;SDS011;10135;50.702;7.276;2022-12-29T06:33:11;0.80;;;0.80;;
19946;SDS011;10135;50.702;7.276;2022-12-29T06:35:12;1.03;;;0.80;;
19946;SDS011;10135;50.702;7.276;2022-12-29T06:37:13;0.70;;;0.70;;
19946;SDS011;10135;50.702;7.276;2022-12-29T06:39:14;0.90;;;0.90;;
19946;SDS011;10135;50.702;7.276;2022-12-29T06:41:15;0.70;;;0.70;;
19946;SDS011;10135;50.702;7.276;2022-12-29T06:43:16;0.90;;;0.90;;
19946;SDS011;10135;50.702;7.276;2022-12-29T06:45:16;0.87;;;0.80;;
19946;SDS011;10135;50.702;7.276;2022-12-29T06:47:17;0.70;;;0.70;;
19946;SDS011;10135;50.702;7.276;2022-12-29T06:49:18;0.70;;;0.70;;
19946;SDS011;10135;50.702;7.276;2022-12-29T06:51:19;1.30;;;0.87;;
19946;SDS011;10135;50.702;7.276;2022-12-29T06:53:19;0.90;;;0.90;;
19946;SDS011;10135;50.702;7.276;2022-12-29T06:55:20;1.37;;;0.90;;
19946;SDS011;10135;50.702;7.276;2022-12-29T06:57:22;0.70;;;0.70;;
19946;SDS011;10135;50.702;7.276;2022-12-29T06:59:23;0.90;;;0.90;;
19946;SDS011;10135;50.702;7.276;2022-12-29T07:01:24;1.77;;;1.00;;
19946;SDS011;10135;50.702;7.276;2022-12-29T07:03:24;0.90;;;0.90;;
19946;SDS011;10135;50.702;7.276;2022-12-29T07:05:25;0.97;;;0.97;;
19946;SDS011;10135;50.702;7.276;2022-12-29T07:07:27;0.80;;;0.80;;
19946;SDS011;10135;50.702;7.276;2022-12-29T07:09:28;0.80;;;0.80;;
19946;SDS011;10135;50.702;7.276;2022-12-29T07:11:28;0.80;;;0.80;;
19946;SDS011;10135;50.702;7.276;2022-12-29T07:13:29;0.80;;;0.80;;
19946;SDS011;10135;50.702;7.276;2022-12-29T07:15:30;1.43;;;0.87;;
19946;SDS011;10135;50.702;7.276;2022-12-29T07:17:30;1.20;;;0.80;;
19946;SDS011;10135;50.702;7.276;2022-12-29T07:19:31;0.90;;;0.90;;
19946;SDS011;10135;50.702;7.276;2022-12-29T07:21:33;1.40;;;0.80;;
19946;SDS011;10135;50.702;7.276;2022-12-29T07:23:33;0.70;;;0.70;;
19946;SDS011;10135;50.702;7.276;2022-12-29T07:25:34;0.70;;;0.70;;
19946;SDS011;10135;50.702;7.276;2022-12-29T07:27:35;0.53;;;0.53;;
19946;SDS011;10135;50.702;7.276;2022-12-29T07:29:36;0.70;;;0.70;;
19946;SDS011;10135;50.702;7.276;2022-12-29T07:31:38;0.50;;;0.50;;
19946;SDS011;10135;50.702;7.276;2022-12-29T07:33:38;0.60;;;0.60;;
19946;SDS011;10135;50.702;7.276;2022-12-29T07:35:39;0.60;;;0.60;;
19946;SDS011;10135;50.702;7.276;2022-12-29T07:37:40;0.70;;;0.70;;
19946;SDS011;10135;50.702;7.276;2022-12-29T07:39:40;0.57;;;0.57;;
19946;SDS011;10135;50.702;7.276;2022-12-29T07:41:41;1.60;;;0.60;;
19946;SDS011;10135;50.702;7.276;2022-12-29T07:43:42;0.60;;;0.60;;
19946;SDS011;10135;50.702;7.276;2022-12-29T07:45:48;1.97;;;0.70;;
19946;SDS011;10135;50.702;7.276;2022-12-29T07:47:49;0.57;;;0.57;;
19946;SDS011;10135;50.702;7.276;2022-12-29T07:49:50;0.50;;;0.50;;
19946;SDS011;10135;50.702;7.276;2022-12-29T07:51:50;0.50;;;0.50;;
19946;SDS011;10135;50.702;7.276;2022-12-29T07:53:51;0.50;;;0.50;;
19946;SDS011;10135;50.702;7.276;2022-12-29T07:55:52;1.33;;;0.60;;
19946;SDS011;10135;50.702;7.276;2022-12-29T07:57:53;0.50;;;0.50;;
19946;SDS011;10135;50.702;7.276;2022-12-29T07:59:54;2.07;;;0.50;;
19946;SDS011;10135;50.702;7.276;2022-12-29T08:01:55;0.87;;;0.60;;
19946;SDS011;10135;50.702;7.276;2022-12-29T08:03:56;0.50;;;0.50;;
19946;SDS011;10135;50.702;7.276;2022-12-29T08:05:56;1.13;;;0.70;;
19946;SDS011;10135;50.702;7.276;2022-12-29T08:07:57;0.80;;;0.50;;
19946;SDS011;10135;50.702;7.276;2022-12-29T08:09:58;0.50;;;0.50;;
19946;SDS011;10135;50.702;7.276;2022-12-29T08:11:58;0.73;;;0.57;;
19946;SDS011;10135;50.702;7.276;2022-12-29T08:13:59;1.07;;;0.80;;
19946;SDS011;10135;50.702;7.276;2022-12-29T08:16:00;0.60;;;0.60;;
19946;SDS011;10135;50.702;7.276;2022-12-29T08:18:00;1.43;;;0.70;;
19946;SDS011;10135;50.702;7.276;2022-12-29T08:20:03;0.50;;;0.50;;
19946;SDS011;10135;50.702;7.276;2022-12-29T08:22:04;0.70;;;0.70;;
19946;SDS011;10135;50.702;7.276;2022-12-29T08:24:05;0.77;;;0.77;;
19946;SDS011;10135;50.702;7.276;2022-12-29T08:26:07;0.70;;;0.70;;
19946;SDS011;10135;50.702;7.276;2022-12-29T08:28:09;1.93;;;1.00;;
19946;SDS011;10135;50.702;7.276;2022-12-29T08:30:10;0.67;;;0.67;;
19946;SDS011;10135;50.702;7.276;2022-12-29T08:32:11;1.50;;;0.70;;
19946;SDS011;10135;50.702;7.276;2022-12-29T08:34:12;0.63;;;0.63;;
19946;SDS011;10135;50.702;7.276;2022-12-29T08:36:13;0.90;;;0.90;;
19946;SDS011;10135;50.702;7.276;2022-12-29T08:38:14;1.57;;;0.77;;
19946;SDS011;10135;50.702;7.276;2022-12-29T08:40:15;0.70;;;0.70;;
19946;SDS011;10135;50.702;7.276;2022-12-29T08:42:16;0.50;;;0.50;;
19946;SDS011;10135;50.702;7.276;2022-12-29T08:44:16;0.60;;;0.60;;
19946;SDS011;10135;50.702;7.276;2022-12-29T08:46:17;0.60;;;0.60;;
19946;SDS011;10135;50.702;7.276;2022-12-29T08:48:18;0.50;;;0.50;;
19946;SDS011;10135;50.702;7.276;2022-12-29T08:50:19;0.80;;;0.80;;
19946;SDS011;10135;50.702;7.276;2022-12-29T08:52:20;0.60;;;0.60;;
19946;SDS011;10135;50.702;7.276;2022-12-29T08:54:20;1.23;;;0.80;;
19946;SDS011;10135;50.702;7.276;2022-12-29T08:56:21;1.20;;;0.60;;
19946;SDS011;10135;50.702;7.276;2022-12-29T08:58:23;0.87;;;0.80;;
19946;SDS011;10135;50.702;7.276;2022-12-29T09:00:25;0.93;;;0.60;;
19946;SDS011;10135;50.702;7.276;2022-12-29T09:02:26;1.07;;;0.70;;
19946;SDS011;10135;50.702;7.276;2022-12-29T09:04:27;1.13;;;0.70;;
19946;SDS011;10135;50.702;7.276;2022-12-29T09:06:27;0.93;;;0.70;;
19946;SDS011;10135;50.702;7.276;2022-12-29T09:08:28;0.90;;;0.90;;
19946;SDS011;10135;50.702;7.276;2022-12-29T09:10:29;3.70;;;0.80;;
19946;SDS011;10135;50.702;7.276;2022-12-29T09:12:30;2.97;;;0.90;;
19946;SDS011;10135;50.702;7.276;2022-12-29T09:14:31;0.53;;;0.53;;
19946;SDS011;10135;50.702;7.276;2022-12-29T09:16:31;4.43;;;1.10;;
19946;SDS011;10135;50.702;7.276;2022-12-29T09:18:33;0.60;;;0.60;;
19946;SDS011;10135;50.702;7.276;2022-12-29T09:20:34;0.70;;;0.70;;
19946;SDS011;10135;50.702;7.276;2022-12-29T09:22:34;1.40;;;1.00;;
19946;SDS011;10135;50.702;7.276;2022-12-29T09:24:36;0.97;;;0.87;;
19946;SDS011;10135;50.702;7.276;2022-12-29T09:26:37;0.97;;;0.70;;
19946;SDS011;10135;50.702;7.276;2022-12-29T09:28:37;0.70;;;0.70;;
19946;SDS011;10135;50.702;7.276;2022-12-29T09:30:38;0.80;;;0.80;;
19946;SDS011;10135;50.702;7.276;2022-12-29T09:32:39;1.40;;;0.93;;
19946;SDS011;10135;50.702;7.276;2022-12-29T09:34:41;1.20;;;0.80;;
19946;SDS011;10135;50.702;7.276;2022-12-29T09:36:41;1.23;;;0.70;;
19946;SDS011;10135;50.702;7.276;2022-12-29T09:38:42;2.83;;;0.77;;
19946;SDS011;10135;50.702;7.276;2022-12-29T09:40:44;2.43;;;1.00;;
19946;SDS011;10135;50.702;7.276;2022-12-29T09:45:43;2.10;;;0.80;;
19946;SDS011;10135;50.702;7.276;2022-12-29T09:47:51;1.87;;;1.07;;
19946;SDS011;10135;50.702;7.276;2022-12-29T09:49:53;2.07;;;0.97;;
19946;SDS011;10135;50.702;7.276;2022-12-29T09:52:52;0.83;;;0.70;;
19946;SDS011;10135;50.702;7.276;2022-12-29T09:54:56;1.47;;;0.80;;
19946;SDS011;10135;50.702;7.276;2022-12-29T09:57:03;1.20;;;0.90;;
19946;SDS011;10135;50.702;7.276;2022-12-29T09:59:15;2.33;;;1.00;;
19946;SDS011;10135;50.702;7.276;2022-12-29T10:01:28;3.07;;;0.83;;
19946;SDS011;10135;50.702;7.276;2022-12-29T10:03:55;0.90;;;0.77;;
19946;SDS011;10135;50.702;7.276;2022-12-29T10:13:26;1.10;;;1.00;;
19946;SDS011;10135;50.702;7.276;2022-12-29T10:16:01;1.40;;;1.00;;
19946;SDS011;10135;50.702;7.276;2022-12-29T10:20:41;3.33;;;1.20;;
19946;SDS011;10135;50.702;7.276;2022-12-29T10:25:28;2.47;;;0.93;;
19946;SDS011;10135;50.702;7.276;2022-12-29T10:27:37;1.73;;;1.20;;
19946;SDS011;10135;50.702;7.276;2022-12-29T10:29:43;1.70;;;1.00;;
19946;SDS011;10135;50.702;7.276;2022-12-29T10:31:55;4.10;;;1.33;;
19946;SDS011;10135;50.702;7.276;2022-12-29T10:34:01;4.03;;;1.00;;
19946;SDS011;10135;50.702;7.276;2022-12-29T10:36:16;2.17;;;0.87;;
19946;SDS011;10135;50.702;7.276;2022-12-29T10:39:03;1.07;;;0.93;;
19946;SDS011;10135;50.702;7.276;2022-12-29T10:41:27;2.67;;;0.90;;
19946;SDS011;10135;50.702;7.276;2022-12-29T10:43:43;1.20;;;0.97;;
19946;SDS011;10135;50.702;7.276;2022-12-29T10:45:48;1.10;;;1.00;;
19946;SDS011;10135;50.702;7.276;2022-12-29T10:47:55;3.47;;;0.93;;
19946;SDS011;10135;50.702;7.276;2022-12-29T10:50:06;1.07;;;0.97;;
19946;SDS011;10135;50.702;7.276;2022-12-29T10:52:07;0.80;;;0.80;;
19946;SDS011;10135;50.702;7.276;2022-12-29T10:54:18;3.50;;;0.90;;
19946;SDS011;10135;50.702;7.276;2022-12-29T10:56:34;3.23;;;1.70;;
19946;SDS011;10135;50.702;7.276;2022-12-29T10:58:45;1.87;;;1.10;;
19946;SDS011;10135;50.702;7.276;2022-12-29T11:00:51;2.37;;;1.10;;
19946;SDS011;10135;50.702;7.276;2022-12-29T11:05:20;3.60;;;2.10;;
19946;SDS011;10135;50.702;7.276;2022-12-29T11:07:27;2.17;;;1.40;;
19946;SDS011;10135;50.702;7.276;2022-12-29T11:09:31;1.77;;;1.20;;
19946;SDS011;10135;50.702;7.276;2022-12-29T11:11:36;3.27;;;1.33;;
19946;SDS011;10135;50.702;7.276;2022-12-29T11:13:47;0.90;;;0.90;;
19946;SDS011;10135;50.702;7.276;2022-12-29T11:15:50;1.80;;;1.00;;
19946;SDS011;10135;50.702;7.276;2022-12-29T11:17:52;2.63;;;1.10;;
19946;SDS011;10135;50.702;7.276;2022-12-29T11:19:57;1.20;;;1.00;;
19946;SDS011;10135;50.702;7.276;2022-12-29T11:24:24;2.17;;;1.00;;
19946;SDS011;10135;50.702;7.276;2022-12-29T11:26:29;1.83;;;0.87;;
19946;SDS011;10135;50.702;7.276;2022-12-29T11:28:32;3.07;;;1.17;;
19946;SDS011;10135;50.702;7.276;2022-12-29T11:30:33;2.13;;;1.10;;
19946;SDS011;10135;50.702;7.276;2022-12-29T11:32:34;1.30;;;1.00;;
19946;SDS011;10135;50.702;7.276;2022-12-29T11:34:35;1.33;;;1.00;;
19946;SDS011;10135;50.702;7.276;2022-12-29T11:36:36;5.90;;;2.53;;
19946;SDS011;10135;50.702;7.276;2022-12-29T11:38:39;4.63;;;2.73;;
19946;SDS011;10135;50.702;7.276;2022-12-29T11:40:45;3.83;;;1.83;;
19946;SDS011;10135;50.702;7.276;2022-12-29T11:42:55;5.30;;;3.20;;
19946;SDS011;10135;50.702;7.276;2022-12-29T11:45:06;3.83;;;2.03;;
19946;SDS011;10135;50.702;7.276;2022-12-29T11:47:34;2.03;;;1.70;;
19946;SDS011;10135;50.702;7.276;2022-12-29T11:49:36;5.77;;;2.03;;
19946;SDS011;10135;50.702;7.276;2022-12-29T11:51:43;4.17;;;2.07;;
19946;SDS011;10135;50.702;7.276;2022-12-29T11:57:11;2.83;;;1.70;;
19946;SDS011;10135;50.702;7.276;2022-12-29T12:01:35;1.90;;;1.40;;
19946;SDS011;10135;50.702;7.276;2022-12-29T12:03:40;2.37;;;1.37;;
19946;SDS011;10135;50.702;7.276;2022-12-29T12:05:56;5.33;;;1.10;;
19946;SDS011;10135;50.702;7.276;2022-12-29T12:10:39;4.20;;;1.40;;
19946;SDS011;10135;50.702;7.276;2022-12-29T12:15:36;0.97;;;0.97;;
19946;SDS011;10135;50.702;7.276;2022-12-29T12:19:54;3.33;;;1.20;;
19946;SDS011;10135;50.702;7.276;2022-12-29T12:22:08;1.33;;;0.90;;
19946;SDS011;10135;50.702;7.276;2022-12-29T12:29:04;1.90;;;1.10;;
19946;SDS011;10135;50.702;7.276;2022-12-29T12:31:18;3.43;;;1.17;;
19946;SDS011;10135;50.702;7.276;2022-12-29T12:33:39;2.60;;;1.13;;
19946;SDS011;10135;50.702;7.276;2022-12-29T12:35:57;2.90;;;1.17;;
19946;SDS011;10135;50.702;7.276;2022-12-29T12:38:40;4.20;;;1.33;;
19946;SDS011;10135;50.702;7.276;2022-12-29T12:43:41;1.57;;;0.97;;
19946;SDS011;10135;50.702;7.276;2022-12-29T12:54:20;2.70;;;0.90;;
19946;SDS011;10135;50.702;7.276;2022-12-29T12:56:47;2.87;;;1.20;;
19946;SDS011;10135;50.702;7.276;2022-12-29T13:02:15;4.27;;;1.10;;
19946;SDS011;10135;50.702;7.276;2022-12-29T13:09:57;2.27;;;1.07;;
19946;SDS011;10135;50.702;7.276;2022-12-29T13:12:28;1.37;;;0.93;;
19946;SDS011;10135;50.702;7.276;2022-12-29T13:14:55;3.90;;;1.47;;
19946;SDS011;10135;50.702;7.276;2022-12-29T13:17:17;2.40;;;1.00;;
19946;SDS011;10135;50.702;7.276;2022-12-29T13:19:41;1.10;;;0.80;;
19946;SDS011;10135;50.702;7.276;2022-12-29T13:22:05;1.63;;;1.27;;
19946;SDS011;10135;50.702;7.276;2022-12-29T13:24:20;2.30;;;1.07;;
19946;SDS011;10135;50.702;7.276;2022-12-29T13:26:59;1.70;;;1.10;;
19946;SDS011;10135;50.702;7.276;2022-12-29T13:29:39;3.93;;;0.90;;
19946;SDS011;10135;50.702;7.276;2022-12-29T13:34:53;4.90;;;1.77;;
19946;SDS011;10135;50.702;7.276;2022-12-29T13:37:25;2.50;;;1.60;;
19946;SDS011;10135;50.702;7.276;2022-12-29T13:39:35;2.60;;;1.57;;
19946;SDS011;10135;50.702;7.276;2022-12-29T13:41:43;3.97;;;1.17;;
19946;SDS011;10135;50.702;7.276;2022-12-29T13:43:53;4.47;;;1.27;;
19946;SDS011;10135;50.702;7.276;2022-12-29T13:45:58;2.03;;;1.30;;
19946;SDS011;10135;50.702;7.276;2022-12-29T13:48:46;6.47;;;1.50;;
19946;SDS011;10135;50.702;7.276;2022-12-29T13:51:02;3.43;;;1.60;;
19946;SDS011;10135;50.702;7.276;2022-12-29T13:53:26;3.47;;;1.20;;
19946;SDS011;10135;50.702;7.276;2022-12-29T13:55:46;2.67;;;1.00;;
19946;SDS011;10135;50.702;7.276;2022-12-29T13:58:09;1.87;;;1.30;;
19946;SDS011;10135;50.702;7.276;2022-12-29T14:00:46;2.53;;;1.00;;
19946;SDS011;10135;50.702;7.276;2022-12-29T14:03:19;3.10;;;1.27;;
19946;SDS011;10135;50.702;7.276;2022-12-29T14:05:37;1.83;;;1.00;;
19946;SDS011;10135;50.702;7.276;2022-12-29T14:07:38;1.70;;;1.10;;
19946;SDS011;10135;50.702;7.276;2022-12-29T14:09:45;2.17;;;0.93;;
19946;SDS011;10135;50.702;7.276;2022-12-29T14:11:49;2.97;;;0.80;;
